Current Weather

Mount Pleasant Rgnl

Mount Pleasant, Texas (KOSA)

Report from: Friday, February 23, 2024 7:15 PM UTC
Current time: Friday, February 23, 2024 7:42 PM UTC

Nearby weather – Weather history – Daily summaries
Weather forecast

Temperature20.6°C (69.1°F)
Dew point0.5°C (32.9°F)
Winds 14 kts (7.2 m/s, 16.1 mph) North-Northwest (330°)
Wind gusts 18 kts (9.3 m/s, 20.7 mph)
Visibility10 mi. (16.1 km)
Clouds Sky clear
Altimeter30.04 in.Hg (1017 mB)
Relative humidity26 %
Density altitude619 ft. (189 m)
Remarks Fully automated report
Automated weather observing station with precipitation discriminator
Flight conditions Visual Meteorological Conditions
Raw dataKOSA 231915Z AUTO 33014G18KT 10SM CLR 21/00 A3004 RMK AO2 T02060005
An error has occurred. This application may no longer respond until reloaded. Reload 🗙